sensor_id;sensor_type;location;lat;lon;timestamp;P1;durP1;ratioP1;P2;durP2;ratioP2
13485;SDS011;6815;59.336;17.998;2022-10-16T00:01:58;21.03;;;14.87;;
13485;SDS011;6815;59.336;17.998;2022-10-16T00:04:24;19.43;;;15.03;;
13485;SDS011;6815;59.336;17.998;2022-10-16T00:06:50;21.23;;;15.90;;
13485;SDS011;6815;59.336;17.998;2022-10-16T00:09:15;19.80;;;15.33;;
13485;SDS011;6815;59.336;17.998;2022-10-16T00:11:41;17.87;;;14.07;;
13485;SDS011;6815;59.336;17.998;2022-10-16T00:14:08;19.20;;;14.07;;
13485;SDS011;6815;59.336;17.998;2022-10-16T00:16:36;18.33;;;14.33;;
13485;SDS011;6815;59.336;17.998;2022-10-16T00:19:02;19.30;;;13.80;;
13485;SDS011;6815;59.336;17.998;2022-10-16T00:21:28;18.60;;;12.67;;
13485;SDS011;6815;59.336;17.998;2022-10-16T00:24:00;19.83;;;13.43;;
13485;SDS011;6815;59.336;17.998;2022-10-16T00:26:28;18.03;;;13.60;;
13485;SDS011;6815;59.336;17.998;2022-10-16T00:28:55;19.33;;;13.40;;
13485;SDS011;6815;59.336;17.998;2022-10-16T00:31:21;17.00;;;12.97;;
13485;SDS011;6815;59.336;17.998;2022-10-16T00:33:48;21.87;;;13.57;;
13485;SDS011;6815;59.336;17.998;2022-10-16T00:36:15;17.30;;;12.70;;
13485;SDS011;6815;59.336;17.998;2022-10-16T00:38:43;16.93;;;13.10;;
13485;SDS011;6815;59.336;17.998;2022-10-16T00:41:10;17.67;;;12.67;;
13485;SDS011;6815;59.336;17.998;2022-10-16T00:43:45;15.77;;;12.53;;
13485;SDS011;6815;59.336;17.998;2022-10-16T00:48:52;16.23;;;12.60;;
13485;SDS011;6815;59.336;17.998;2022-10-16T00:51:30;15.50;;;12.03;;
13485;SDS011;6815;59.336;17.998;2022-10-16T00:53:59;15.90;;;12.23;;
13485;SDS011;6815;59.336;17.998;2022-10-16T00:56:25;17.10;;;12.47;;
13485;SDS011;6815;59.336;17.998;2022-10-16T00:58:50;19.50;;;13.10;;
13485;SDS011;6815;59.336;17.998;2022-10-16T01:01:16;16.20;;;12.23;;
13485;SDS011;6815;59.336;17.998;2022-10-16T01:03:42;16.07;;;11.77;;
13485;SDS011;6815;59.336;17.998;2022-10-16T01:08:44;17.50;;;12.00;;
13485;SDS011;6815;59.336;17.998;2022-10-16T01:11:23;16.57;;;12.13;;
13485;SDS011;6815;59.336;17.998;2022-10-16T01:13:58;15.50;;;12.30;;
13485;SDS011;6815;59.336;17.998;2022-10-16T01:16:34;17.03;;;11.63;;
13485;SDS011;6815;59.336;17.998;2022-10-16T01:19:11;18.00;;;13.67;;
13485;SDS011;6815;59.336;17.998;2022-10-16T01:21:42;18.30;;;13.50;;
13485;SDS011;6815;59.336;17.998;2022-10-16T01:35:02;18.80;;;13.47;;
13485;SDS011;6815;59.336;17.998;2022-10-16T01:37:40;16.43;;;12.47;;
13485;SDS011;6815;59.336;17.998;2022-10-16T01:40:12;17.00;;;12.43;;
13485;SDS011;6815;59.336;17.998;2022-10-16T01:42:43;17.13;;;12.73;;
13485;SDS011;6815;59.336;17.998;2022-10-16T01:45:15;16.03;;;12.77;;
13485;SDS011;6815;59.336;17.998;2022-10-16T01:47:44;15.93;;;12.47;;
13485;SDS011;6815;59.336;17.998;2022-10-16T01:50:10;16.03;;;12.17;;
13485;SDS011;6815;59.336;17.998;2022-10-16T01:52:39;18.57;;;13.00;;
13485;SDS011;6815;59.336;17.998;2022-10-16T01:55:08;14.40;;;12.17;;
13485;SDS011;6815;59.336;17.998;2022-10-16T01:57:37;16.30;;;12.17;;
13485;SDS011;6815;59.336;17.998;2022-10-16T02:00:09;14.90;;;12.03;;
13485;SDS011;6815;59.336;17.998;2022-10-16T02:02:38;14.07;;;11.07;;
13485;SDS011;6815;59.336;17.998;2022-10-16T02:07:41;15.47;;;11.47;;
13485;SDS011;6815;59.336;17.998;2022-10-16T02:10:07;14.67;;;11.20;;
13485;SDS011;6815;59.336;17.998;2022-10-16T02:12:33;14.27;;;11.47;;
13485;SDS011;6815;59.336;17.998;2022-10-16T02:15:04;17.57;;;11.57;;
13485;SDS011;6815;59.336;17.998;2022-10-16T02:17:30;18.03;;;11.60;;
13485;SDS011;6815;59.336;17.998;2022-10-16T02:19:56;15.20;;;11.73;;
13485;SDS011;6815;59.336;17.998;2022-10-16T02:22:43;14.77;;;11.63;;
13485;SDS011;6815;59.336;17.998;2022-10-16T02:27:55;12.80;;;10.33;;
13485;SDS011;6815;59.336;17.998;2022-10-16T02:30:33;13.37;;;11.10;;
13485;SDS011;6815;59.336;17.998;2022-10-16T02:33:00;14.07;;;10.77;;
13485;SDS011;6815;59.336;17.998;2022-10-16T02:35:32;15.93;;;11.13;;
13485;SDS011;6815;59.336;17.998;2022-10-16T02:38:00;13.93;;;10.33;;
13485;SDS011;6815;59.336;17.998;2022-10-16T02:40:26;12.83;;;11.27;;
13485;SDS011;6815;59.336;17.998;2022-10-16T02:42:53;12.53;;;10.60;;
13485;SDS011;6815;59.336;17.998;2022-10-16T02:45:19;15.30;;;11.43;;
13485;SDS011;6815;59.336;17.998;2022-10-16T02:47:45;14.03;;;10.90;;
13485;SDS011;6815;59.336;17.998;2022-10-16T02:50:11;12.10;;;9.57;;
13485;SDS011;6815;59.336;17.998;2022-10-16T02:52:37;15.70;;;10.93;;
13485;SDS011;6815;59.336;17.998;2022-10-16T02:55:02;14.40;;;10.70;;
13485;SDS011;6815;59.336;17.998;2022-10-16T02:57:28;11.83;;;9.87;;
13485;SDS011;6815;59.336;17.998;2022-10-16T02:59:53;12.90;;;10.40;;
13485;SDS011;6815;59.336;17.998;2022-10-16T03:02:19;12.70;;;11.00;;
13485;SDS011;6815;59.336;17.998;2022-10-16T03:04:44;16.00;;;10.87;;
13485;SDS011;6815;59.336;17.998;2022-10-16T03:07:10;15.80;;;10.43;;
13485;SDS011;6815;59.336;17.998;2022-10-16T03:09:35;16.47;;;10.60;;
13485;SDS011;6815;59.336;17.998;2022-10-16T03:12:01;12.73;;;10.20;;
13485;SDS011;6815;59.336;17.998;2022-10-16T03:14:26;13.07;;;10.40;;
13485;SDS011;6815;59.336;17.998;2022-10-16T03:16:52;12.83;;;10.40;;
13485;SDS011;6815;59.336;17.998;2022-10-16T03:19:18;13.03;;;10.53;;
13485;SDS011;6815;59.336;17.998;2022-10-16T03:21:43;13.87;;;10.10;;
13485;SDS011;6815;59.336;17.998;2022-10-16T03:24:09;13.07;;;9.67;;
13485;SDS011;6815;59.336;17.998;2022-10-16T03:26:35;11.97;;;10.37;;
13485;SDS011;6815;59.336;17.998;2022-10-16T03:29:02;11.27;;;9.73;;
13485;SDS011;6815;59.336;17.998;2022-10-16T03:31:28;13.33;;;9.93;;
13485;SDS011;6815;59.336;17.998;2022-10-16T03:33:54;13.37;;;9.50;;
13485;SDS011;6815;59.336;17.998;2022-10-16T03:36:20;12.93;;;9.63;;
13485;SDS011;6815;59.336;17.998;2022-10-16T03:38:45;9.67;;;8.60;;
13485;SDS011;6815;59.336;17.998;2022-10-16T03:41:11;13.37;;;9.67;;
13485;SDS011;6815;59.336;17.998;2022-10-16T03:43:36;10.57;;;8.40;;
13485;SDS011;6815;59.336;17.998;2022-10-16T03:46:03;14.07;;;9.47;;
13485;SDS011;6815;59.336;17.998;2022-10-16T03:48:29;12.30;;;9.07;;
13485;SDS011;6815;59.336;17.998;2022-10-16T03:50:54;10.20;;;8.77;;
13485;SDS011;6815;59.336;17.998;2022-10-16T03:53:20;10.73;;;8.63;;
13485;SDS011;6815;59.336;17.998;2022-10-16T03:55:45;12.03;;;8.50;;
13485;SDS011;6815;59.336;17.998;2022-10-16T03:58:10;10.43;;;8.93;;
13485;SDS011;6815;59.336;17.998;2022-10-16T04:00:43;9.70;;;7.60;;
13485;SDS011;6815;59.336;17.998;2022-10-16T04:03:09;10.67;;;8.50;;
13485;SDS011;6815;59.336;17.998;2022-10-16T04:05:35;12.13;;;8.23;;
13485;SDS011;6815;59.336;17.998;2022-10-16T04:08:01;10.63;;;8.90;;
13485;SDS011;6815;59.336;17.998;2022-10-16T04:10:26;10.17;;;7.93;;
13485;SDS011;6815;59.336;17.998;2022-10-16T04:12:52;9.23;;;8.00;;
13485;SDS011;6815;59.336;17.998;2022-10-16T04:15:19;11.43;;;7.73;;
13485;SDS011;6815;59.336;17.998;2022-10-16T04:17:45;11.37;;;8.00;;
13485;SDS011;6815;59.336;17.998;2022-10-16T04:20:11;10.00;;;7.70;;
13485;SDS011;6815;59.336;17.998;2022-10-16T04:22:37;9.10;;;7.03;;
13485;SDS011;6815;59.336;17.998;2022-10-16T04:25:02;9.57;;;7.67;;
13485;SDS011;6815;59.336;17.998;2022-10-16T04:27:28;9.70;;;7.20;;
13485;SDS011;6815;59.336;17.998;2022-10-16T04:29:56;9.47;;;6.97;;
13485;SDS011;6815;59.336;17.998;2022-10-16T04:32:22;8.47;;;7.13;;
13485;SDS011;6815;59.336;17.998;2022-10-16T04:34:47;8.57;;;7.03;;
13485;SDS011;6815;59.336;17.998;2022-10-16T04:37:13;9.47;;;7.63;;
13485;SDS011;6815;59.336;17.998;2022-10-16T04:39:38;9.90;;;7.43;;
13485;SDS011;6815;59.336;17.998;2022-10-16T04:42:03;9.83;;;7.40;;
13485;SDS011;6815;59.336;17.998;2022-10-16T04:44:29;9.20;;;6.70;;
13485;SDS011;6815;59.336;17.998;2022-10-16T04:46:58;11.60;;;7.00;;
13485;SDS011;6815;59.336;17.998;2022-10-16T04:49:23;8.60;;;6.80;;
13485;SDS011;6815;59.336;17.998;2022-10-16T04:51:49;8.00;;;6.90;;
13485;SDS011;6815;59.336;17.998;2022-10-16T04:54:14;8.63;;;6.53;;
13485;SDS011;6815;59.336;17.998;2022-10-16T04:56:40;7.23;;;6.30;;
13485;SDS011;6815;59.336;17.998;2022-10-16T04:59:11;7.37;;;6.17;;
13485;SDS011;6815;59.336;17.998;2022-10-16T05:01:43;7.13;;;6.37;;
13485;SDS011;6815;59.336;17.998;2022-10-16T05:04:09;7.97;;;6.60;;
13485;SDS011;6815;59.336;17.998;2022-10-16T05:06:35;7.63;;;6.33;;
13485;SDS011;6815;59.336;17.998;2022-10-16T05:09:03;7.00;;;6.20;;
13485;SDS011;6815;59.336;17.998;2022-10-16T05:11:29;7.77;;;6.43;;
13485;SDS011;6815;59.336;17.998;2022-10-16T05:13:54;9.30;;;6.20;;
13485;SDS011;6815;59.336;17.998;2022-10-16T05:16:19;8.17;;;6.03;;
13485;SDS011;6815;59.336;17.998;2022-10-16T05:18:45;9.87;;;6.77;;
13485;SDS011;6815;59.336;17.998;2022-10-16T05:21:10;7.87;;;6.77;;
13485;SDS011;6815;59.336;17.998;2022-10-16T05:23:36;10.77;;;6.77;;
13485;SDS011;6815;59.336;17.998;2022-10-16T05:26:01;10.60;;;7.17;;
13485;SDS011;6815;59.336;17.998;2022-10-16T05:28:27;10.20;;;6.73;;
13485;SDS011;6815;59.336;17.998;2022-10-16T05:30:55;7.83;;;6.03;;
13485;SDS011;6815;59.336;17.998;2022-10-16T05:33:21;10.13;;;6.63;;
13485;SDS011;6815;59.336;17.998;2022-10-16T05:35:47;8.67;;;6.77;;
13485;SDS011;6815;59.336;17.998;2022-10-16T05:38:14;8.13;;;7.33;;
13485;SDS011;6815;59.336;17.998;2022-10-16T05:40:40;9.40;;;6.90;;
13485;SDS011;6815;59.336;17.998;2022-10-16T05:43:06;9.13;;;7.63;;
13485;SDS011;6815;59.336;17.998;2022-10-16T05:45:31;11.33;;;8.23;;
13485;SDS011;6815;59.336;17.998;2022-10-16T05:47:57;9.63;;;7.23;;
13485;SDS011;6815;59.336;17.998;2022-10-16T05:50:22;10.80;;;7.93;;
13485;SDS011;6815;59.336;17.998;2022-10-16T05:52:47;10.33;;;8.40;;
13485;SDS011;6815;59.336;17.998;2022-10-16T05:55:13;10.57;;;8.10;;
13485;SDS011;6815;59.336;17.998;2022-10-16T05:57:38;11.10;;;8.03;;
13485;SDS011;6815;59.336;17.998;2022-10-16T06:00:04;10.90;;;8.73;;
13485;SDS011;6815;59.336;17.998;2022-10-16T06:02:30;11.53;;;8.97;;
13485;SDS011;6815;59.336;17.998;2022-10-16T06:04:56;11.30;;;8.17;;
13485;SDS011;6815;59.336;17.998;2022-10-16T06:07:21;11.97;;;9.13;;
13485;SDS011;6815;59.336;17.998;2022-10-16T06:09:48;12.30;;;9.77;;
13485;SDS011;6815;59.336;17.998;2022-10-16T06:12:14;12.07;;;9.73;;
13485;SDS011;6815;59.336;17.998;2022-10-16T06:14:40;12.23;;;9.83;;
13485;SDS011;6815;59.336;17.998;2022-10-16T06:17:05;15.17;;;10.67;;
13485;SDS011;6815;59.336;17.998;2022-10-16T06:19:31;13.60;;;11.20;;
13485;SDS011;6815;59.336;17.998;2022-10-16T06:21:56;13.60;;;11.63;;
13485;SDS011;6815;59.336;17.998;2022-10-16T06:24:23;18.63;;;11.97;;
13485;SDS011;6815;59.336;17.998;2022-10-16T06:26:48;15.27;;;12.67;;
13485;SDS011;6815;59.336;17.998;2022-10-16T06:29:13;16.93;;;11.73;;
13485;SDS011;6815;59.336;17.998;2022-10-16T06:31:39;18.27;;;13.10;;
13485;SDS011;6815;59.336;17.998;2022-10-16T06:34:04;17.57;;;12.80;;
13485;SDS011;6815;59.336;17.998;2022-10-16T06:36:34;16.60;;;12.73;;
13485;SDS011;6815;59.336;17.998;2022-10-16T06:39:00;18.27;;;13.17;;
13485;SDS011;6815;59.336;17.998;2022-10-16T06:41:25;15.23;;;12.60;;
13485;SDS011;6815;59.336;17.998;2022-10-16T06:43:51;18.93;;;13.60;;
13485;SDS011;6815;59.336;17.998;2022-10-16T06:46:19;18.03;;;12.73;;
13485;SDS011;6815;59.336;17.998;2022-10-16T06:48:47;16.87;;;12.97;;
13485;SDS011;6815;59.336;17.998;2022-10-16T06:51:13;17.47;;;12.97;;
13485;SDS011;6815;59.336;17.998;2022-10-16T06:53:43;17.50;;;13.17;;
13485;SDS011;6815;59.336;17.998;2022-10-16T06:56:11;18.33;;;13.47;;
13485;SDS011;6815;59.336;17.998;2022-10-16T06:58:39;17.43;;;12.70;;
13485;SDS011;6815;59.336;17.998;2022-10-16T07:01:05;16.83;;;13.07;;
13485;SDS011;6815;59.336;17.998;2022-10-16T07:03:30;17.37;;;13.00;;
13485;SDS011;6815;59.336;17.998;2022-10-16T07:05:56;17.20;;;13.53;;
13485;SDS011;6815;59.336;17.998;2022-10-16T07:08:21;15.43;;;12.20;;
13485;SDS011;6815;59.336;17.998;2022-10-16T07:10:47;15.80;;;12.37;;
13485;SDS011;6815;59.336;17.998;2022-10-16T07:13:12;16.67;;;13.23;;
13485;SDS011;6815;59.336;17.998;2022-10-16T07:15:39;19.03;;;12.40;;
13485;SDS011;6815;59.336;17.998;2022-10-16T07:18:06;17.90;;;12.97;;
13485;SDS011;6815;59.336;17.998;2022-10-16T07:20:32;14.33;;;12.37;;
13485;SDS011;6815;59.336;17.998;2022-10-16T07:22:58;16.23;;;11.37;;
13485;SDS011;6815;59.336;17.998;2022-10-16T07:25:23;18.40;;;11.83;;
13485;SDS011;6815;59.336;17.998;2022-10-16T07:27:49;15.30;;;10.77;;
13485;SDS011;6815;59.336;17.998;2022-10-16T07:30:14;14.73;;;10.83;;
13485;SDS011;6815;59.336;17.998;2022-10-16T07:32:40;17.17;;;10.67;;
13485;SDS011;6815;59.336;17.998;2022-10-16T07:35:05;12.23;;;10.00;;
13485;SDS011;6815;59.336;17.998;2022-10-16T07:37:31;15.30;;;9.90;;
13485;SDS011;6815;59.336;17.998;2022-10-16T07:39:56;13.87;;;10.03;;
13485;SDS011;6815;59.336;17.998;2022-10-16T07:42:22;13.23;;;9.07;;
13485;SDS011;6815;59.336;17.998;2022-10-16T07:44:47;12.63;;;9.10;;
13485;SDS011;6815;59.336;17.998;2022-10-16T07:47:13;10.13;;;8.63;;
13485;SDS011;6815;59.336;17.998;2022-10-16T07:49:38;11.17;;;8.70;;
13485;SDS011;6815;59.336;17.998;2022-10-16T07:52:04;9.53;;;7.83;;
13485;SDS011;6815;59.336;17.998;2022-10-16T07:54:29;10.23;;;8.07;;
13485;SDS011;6815;59.336;17.998;2022-10-16T07:56:55;9.43;;;7.27;;
13485;SDS011;6815;59.336;17.998;2022-10-16T07:59:20;10.00;;;7.10;;
13485;SDS011;6815;59.336;17.998;2022-10-16T08:01:45;9.60;;;7.30;;
13485;SDS011;6815;59.336;17.998;2022-10-16T08:04:11;10.90;;;7.13;;
13485;SDS011;6815;59.336;17.998;2022-10-16T08:06:37;7.93;;;7.03;;
13485;SDS011;6815;59.336;17.998;2022-10-16T08:09:04;8.53;;;6.77;;
13485;SDS011;6815;59.336;17.998;2022-10-16T08:11:31;7.80;;;6.33;;
13485;SDS011;6815;59.336;17.998;2022-10-16T08:13:57;8.20;;;6.20;;
13485;SDS011;6815;59.336;17.998;2022-10-16T08:16:23;11.17;;;6.90;;
13485;SDS011;6815;59.336;17.998;2022-10-16T08:18:48;7.07;;;6.07;;
13485;SDS011;6815;59.336;17.998;2022-10-16T08:21:17;16.37;;;6.57;;
13485;SDS011;6815;59.336;17.998;2022-10-16T08:23:44;8.97;;;5.80;;
13485;SDS011;6815;59.336;17.998;2022-10-16T08:26:10;9.50;;;6.33;;
13485;SDS011;6815;59.336;17.998;2022-10-16T08:28:37;7.43;;;5.57;;
13485;SDS011;6815;59.336;17.998;2022-10-16T08:31:09;10.80;;;5.63;;
13485;SDS011;6815;59.336;17.998;2022-10-16T08:33:39;14.37;;;6.23;;
13485;SDS011;6815;59.336;17.998;2022-10-16T08:36:06;7.37;;;5.47;;
13485;SDS011;6815;59.336;17.998;2022-10-16T08:38:32;5.90;;;5.07;;
13485;SDS011;6815;59.336;17.998;2022-10-16T08:41:10;8.80;;;5.80;;
13485;SDS011;6815;59.336;17.998;2022-10-16T08:49:34;6.63;;;4.93;;
13485;SDS011;6815;59.336;17.998;2022-10-16T08:52:00;7.97;;;5.20;;
13485;SDS011;6815;59.336;17.998;2022-10-16T08:54:34;7.90;;;5.43;;
13485;SDS011;6815;59.336;17.998;2022-10-16T08:59:39;6.43;;;4.77;;
13485;SDS011;6815;59.336;17.998;2022-10-16T09:02:13;7.30;;;5.10;;
13485;SDS011;6815;59.336;17.998;2022-10-16T09:13:06;4.97;;;4.47;;
13485;SDS011;6815;59.336;17.998;2022-10-16T09:15:39;6.27;;;4.20;;
13485;SDS011;6815;59.336;17.998;2022-10-16T09:18:12;8.60;;;4.40;;
13485;SDS011;6815;59.336;17.998;2022-10-16T09:20:51;7.03;;;4.00;;
13485;SDS011;6815;59.336;17.998;2022-10-16T09:23:26;7.47;;;4.40;;
13485;SDS011;6815;59.336;17.998;2022-10-16T09:25:53;5.90;;;4.07;;
13485;SDS011;6815;59.336;17.998;2022-10-16T09:28:20;6.87;;;4.00;;
13485;SDS011;6815;59.336;17.998;2022-10-16T09:30:46;5.00;;;3.97;;
13485;SDS011;6815;59.336;17.998;2022-10-16T09:33:14;5.27;;;3.90;;
13485;SDS011;6815;59.336;17.998;2022-10-16T09:35:43;9.47;;;3.97;;
13485;SDS011;6815;59.336;17.998;2022-10-16T09:38:20;6.03;;;3.80;;
13485;SDS011;6815;59.336;17.998;2022-10-16T09:40:57;6.60;;;4.13;;
13485;SDS011;6815;59.336;17.998;2022-10-16T09:43:35;4.93;;;4.00;;
13485;SDS011;6815;59.336;17.998;2022-10-16T09:46:26;5.37;;;3.63;;
13485;SDS011;6815;59.336;17.998;2022-10-16T09:49:24;4.63;;;3.73;;
13485;SDS011;6815;59.336;17.998;2022-10-16T09:51:51;4.80;;;3.73;;
13485;SDS011;6815;59.336;17.998;2022-10-16T09:54:29;5.73;;;4.10;;
13485;SDS011;6815;59.336;17.998;2022-10-16T09:57:03;6.73;;;4.07;;
13485;SDS011;6815;59.336;17.998;2022-10-16T09:59:31;5.07;;;4.13;;
13485;SDS011;6815;59.336;17.998;2022-10-16T10:02:03;4.90;;;4.00;;
13485;SDS011;6815;59.336;17.998;2022-10-16T10:04:59;4.50;;;3.33;;
13485;SDS011;6815;59.336;17.998;2022-10-16T10:07:27;4.40;;;2.97;;
13485;SDS011;6815;59.336;17.998;2022-10-16T10:10:01;5.93;;;3.30;;
13485;SDS011;6815;59.336;17.998;2022-10-16T10:12:29;6.20;;;3.57;;
13485;SDS011;6815;59.336;17.998;2022-10-16T10:15:06;4.13;;;3.40;;
13485;SDS011;6815;59.336;17.998;2022-10-16T10:17:44;5.73;;;3.70;;
13485;SDS011;6815;59.336;17.998;2022-10-16T10:20:27;5.20;;;3.63;;
13485;SDS011;6815;59.336;17.998;2022-10-16T10:23:21;6.97;;;3.53;;
13485;SDS011;6815;59.336;17.998;2022-10-16T10:28:21;6.50;;;3.43;;
13485;SDS011;6815;59.336;17.998;2022-10-16T10:38:49;3.77;;;2.97;;
13485;SDS011;6815;59.336;17.998;2022-10-16T10:41:36;6.50;;;4.00;;
13485;SDS011;6815;59.336;17.998;2022-10-16T10:46:56;5.87;;;3.67;;
13485;SDS011;6815;59.336;17.998;2022-10-16T10:55:10;5.10;;;3.47;;
13485;SDS011;6815;59.336;17.998;2022-10-16T11:03:24;4.83;;;3.13;;
13485;SDS011;6815;59.336;17.998;2022-10-16T11:06:04;5.00;;;3.17;;
13485;SDS011;6815;59.336;17.998;2022-10-16T11:08:41;5.67;;;3.43;;
13485;SDS011;6815;59.336;17.998;2022-10-16T11:11:32;4.50;;;3.00;;
13485;SDS011;6815;59.336;17.998;2022-10-16T11:14:30;4.87;;;3.13;;
13485;SDS011;6815;59.336;17.998;2022-10-16T11:19:55;5.43;;;2.73;;
13485;SDS011;6815;59.336;17.998;2022-10-16T11:27:57;5.27;;;2.60;;
13485;SDS011;6815;59.336;17.998;2022-10-16T11:30:28;6.50;;;3.10;;
13485;SDS011;6815;59.336;17.998;2022-10-16T11:35:41;5.57;;;2.83;;
13485;SDS011;6815;59.336;17.998;2022-10-16T11:38:10;4.83;;;2.90;;
13485;SDS011;6815;59.336;17.998;2022-10-16T11:40:42;5.97;;;3.17;;
13485;SDS011;6815;59.336;17.998;2022-10-16T11:45:49;8.10;;;3.53;;
13485;SDS011;6815;59.336;17.998;2022-10-16T11:48:33;5.00;;;2.80;;
13485;SDS011;6815;59.336;17.998;2022-10-16T11:57:18;5.03;;;2.83;;
13485;SDS011;6815;59.336;17.998;2022-10-16T11:59:48;4.93;;;2.57;;
13485;SDS011;6815;59.336;17.998;2022-10-16T12:05:14;5.63;;;2.80;;
13485;SDS011;6815;59.336;17.998;2022-10-16T12:07:51;5.40;;;2.77;;
13485;SDS011;6815;59.336;17.998;2022-10-16T12:10:39;6.17;;;2.87;;
13485;SDS011;6815;59.336;17.998;2022-10-16T12:18:30;5.40;;;3.00;;
13485;SDS011;6815;59.336;17.998;2022-10-16T12:20:59;4.27;;;2.80;;
13485;SDS011;6815;59.336;17.998;2022-10-16T12:23:30;5.20;;;3.47;;
13485;SDS011;6815;59.336;17.998;2022-10-16T12:25:58;6.97;;;3.17;;
13485;SDS011;6815;59.336;17.998;2022-10-16T12:28:30;6.87;;;3.03;;
13485;SDS011;6815;59.336;17.998;2022-10-16T12:31:07;5.83;;;3.27;;
13485;SDS011;6815;59.336;17.998;2022-10-16T12:33:41;5.33;;;3.20;;
13485;SDS011;6815;59.336;17.998;2022-10-16T12:36:27;6.73;;;3.27;;
13485;SDS011;6815;59.336;17.998;2022-10-16T12:38:55;6.37;;;3.30;;
13485;SDS011;6815;59.336;17.998;2022-10-16T12:43:53;7.00;;;3.40;;
13485;SDS011;6815;59.336;17.998;2022-10-16T12:48:46;7.13;;;3.17;;
13485;SDS011;6815;59.336;17.998;2022-10-16T12:54:03;3.77;;;2.93;;
13485;SDS011;6815;59.336;17.998;2022-10-16T13:10:20;5.97;;;2.83;;
13485;SDS011;6815;59.336;17.998;2022-10-16T13:13:23;6.57;;;2.53;;
13485;SDS011;6815;59.336;17.998;2022-10-16T13:21:18;3.97;;;2.80;;
13485;SDS011;6815;59.336;17.998;2022-10-16T13:24:16;5.20;;;2.80;;
13485;SDS011;6815;59.336;17.998;2022-10-16T13:26:57;4.60;;;2.47;;
13485;SDS011;6815;59.336;17.998;2022-10-16T13:29:29;4.97;;;2.50;;
13485;SDS011;6815;59.336;17.998;2022-10-16T13:31:59;7.50;;;2.70;;
13485;SDS011;6815;59.336;17.998;2022-10-16T13:34:31;3.17;;;2.57;;
13485;SDS011;6815;59.336;17.998;2022-10-16T13:36:57;3.23;;;2.37;;
13485;SDS011;6815;59.336;17.998;2022-10-16T13:42:01;4.77;;;2.67;;
13485;SDS011;6815;59.336;17.998;2022-10-16T13:44:31;3.67;;;2.57;;
13485;SDS011;6815;59.336;17.998;2022-10-16T13:47:10;5.13;;;2.70;;
13485;SDS011;6815;59.336;17.998;2022-10-16T13:49:42;2.93;;;2.20;;
13485;SDS011;6815;59.336;17.998;2022-10-16T13:52:17;4.63;;;2.70;;
13485;SDS011;6815;59.336;17.998;2022-10-16T13:54:44;6.57;;;2.57;;
13485;SDS011;6815;59.336;17.998;2022-10-16T13:57:14;4.20;;;2.40;;
13485;SDS011;6815;59.336;17.998;2022-10-16T13:59:39;4.47;;;2.67;;
13485;SDS011;6815;59.336;17.998;2022-10-16T14:05:03;2.73;;;2.23;;
13485;SDS011;6815;59.336;17.998;2022-10-16T14:07:34;4.87;;;2.30;;
13485;SDS011;6815;59.336;17.998;2022-10-16T14:10:03;4.20;;;2.37;;
13485;SDS011;6815;59.336;17.998;2022-10-16T14:12:30;3.53;;;2.30;;
13485;SDS011;6815;59.336;17.998;2022-10-16T14:14:56;7.53;;;2.53;;
13485;SDS011;6815;59.336;17.998;2022-10-16T14:17:30;5.27;;;2.47;;
13485;SDS011;6815;59.336;17.998;2022-10-16T14:19:58;5.43;;;2.20;;
13485;SDS011;6815;59.336;17.998;2022-10-16T14:22:36;2.93;;;2.10;;
13485;SDS011;6815;59.336;17.998;2022-10-16T14:25:27;4.13;;;2.27;;
13485;SDS011;6815;59.336;17.998;2022-10-16T14:27:57;5.43;;;2.23;;
13485;SDS011;6815;59.336;17.998;2022-10-16T14:30:25;4.20;;;2.37;;
13485;SDS011;6815;59.336;17.998;2022-10-16T14:32:58;4.30;;;2.30;;
13485;SDS011;6815;59.336;17.998;2022-10-16T14:37:58;4.70;;;2.17;;
13485;SDS011;6815;59.336;17.998;2022-10-16T14:40:26;6.63;;;2.63;;
13485;SDS011;6815;59.336;17.998;2022-10-16T14:42:55;5.27;;;2.37;;
13485;SDS011;6815;59.336;17.998;2022-10-16T14:45:21;5.47;;;2.60;;
13485;SDS011;6815;59.336;17.998;2022-10-16T14:47:55;4.63;;;2.80;;
13485;SDS011;6815;59.336;17.998;2022-10-16T14:50:23;6.10;;;2.60;;
13485;SDS011;6815;59.336;17.998;2022-10-16T14:52:49;5.37;;;2.13;;
13485;SDS011;6815;59.336;17.998;2022-10-16T14:55:15;6.50;;;2.57;;
13485;SDS011;6815;59.336;17.998;2022-10-16T14:57:42;5.03;;;2.60;;
13485;SDS011;6815;59.336;17.998;2022-10-16T15:00:14;4.63;;;2.50;;
13485;SDS011;6815;59.336;17.998;2022-10-16T15:02:42;5.43;;;2.33;;
13485;SDS011;6815;59.336;17.998;2022-10-16T15:05:16;3.87;;;2.53;;
13485;SDS011;6815;59.336;17.998;2022-10-16T15:07:51;6.97;;;2.73;;
13485;SDS011;6815;59.336;17.998;2022-10-16T15:10:18;4.40;;;2.53;;
13485;SDS011;6815;59.336;17.998;2022-10-16T15:12:46;4.30;;;2.00;;
13485;SDS011;6815;59.336;17.998;2022-10-16T15:17:53;4.67;;;3.00;;
13485;SDS011;6815;59.336;17.998;2022-10-16T15:20:24;3.93;;;2.13;;
13485;SDS011;6815;59.336;17.998;2022-10-16T15:22:50;5.30;;;2.17;;
13485;SDS011;6815;59.336;17.998;2022-10-16T15:25:38;7.40;;;2.40;;
13485;SDS011;6815;59.336;17.998;2022-10-16T15:28:04;4.57;;;1.57;;
13485;SDS011;6815;59.336;17.998;2022-10-16T15:30:30;2.97;;;1.30;;
13485;SDS011;6815;59.336;17.998;2022-10-16T15:32:56;3.03;;;1.13;;
13485;SDS011;6815;59.336;17.998;2022-10-16T15:35:22;1.70;;;1.10;;
13485;SDS011;6815;59.336;17.998;2022-10-16T15:37:47;2.20;;;1.27;;
13485;SDS011;6815;59.336;17.998;2022-10-16T15:40:13;6.23;;;2.03;;
13485;SDS011;6815;59.336;17.998;2022-10-16T15:42:39;3.00;;;1.87;;
13485;SDS011;6815;59.336;17.998;2022-10-16T15:45:05;4.60;;;3.47;;
13485;SDS011;6815;59.336;17.998;2022-10-16T15:47:31;5.60;;;4.03;;
13485;SDS011;6815;59.336;17.998;2022-10-16T15:49:57;4.17;;;1.90;;
13485;SDS011;6815;59.336;17.998;2022-10-16T15:52:22;3.27;;;1.80;;
13485;SDS011;6815;59.336;17.998;2022-10-16T15:54:48;4.20;;;1.73;;
13485;SDS011;6815;59.336;17.998;2022-10-16T15:57:13;3.63;;;1.63;;
13485;SDS011;6815;59.336;17.998;2022-10-16T15:59:39;3.53;;;1.53;;
13485;SDS011;6815;59.336;17.998;2022-10-16T16:02:04;2.67;;;1.30;;
13485;SDS011;6815;59.336;17.998;2022-10-16T16:04:30;3.63;;;1.70;;
13485;SDS011;6815;59.336;17.998;2022-10-16T16:06:56;7.43;;;2.73;;
13485;SDS011;6815;59.336;17.998;2022-10-16T16:09:21;3.87;;;2.60;;
13485;SDS011;6815;59.336;17.998;2022-10-16T16:11:47;4.33;;;1.37;;
13485;SDS011;6815;59.336;17.998;2022-10-16T16:14:14;2.47;;;1.30;;
13485;SDS011;6815;59.336;17.998;2022-10-16T16:16:40;2.20;;;1.20;;
13485;SDS011;6815;59.336;17.998;2022-10-16T16:19:07;3.20;;;1.40;;
13485;SDS011;6815;59.336;17.998;2022-10-16T16:21:34;2.40;;;1.10;;
13485;SDS011;6815;59.336;17.998;2022-10-16T16:23:59;2.97;;;1.20;;
13485;SDS011;6815;59.336;17.998;2022-10-16T16:26:29;2.73;;;1.20;;
13485;SDS011;6815;59.336;17.998;2022-10-16T16:29:00;3.03;;;1.30;;
13485;SDS011;6815;59.336;17.998;2022-10-16T16:31:27;1.93;;;1.10;;
13485;SDS011;6815;59.336;17.998;2022-10-16T16:33:54;3.07;;;1.60;;
13485;SDS011;6815;59.336;17.998;2022-10-16T16:36:21;2.83;;;1.50;;
13485;SDS011;6815;59.336;17.998;2022-10-16T16:38:47;3.47;;;1.33;;
13485;SDS011;6815;59.336;17.998;2022-10-16T16:41:13;2.57;;;1.23;;
13485;SDS011;6815;59.336;17.998;2022-10-16T16:43:45;2.90;;;1.13;;
13485;SDS011;6815;59.336;17.998;2022-10-16T16:46:12;3.03;;;1.40;;
13485;SDS011;6815;59.336;17.998;2022-10-16T16:48:38;3.00;;;1.30;;
13485;SDS011;6815;59.336;17.998;2022-10-16T16:51:07;2.77;;;1.33;;
13485;SDS011;6815;59.336;17.998;2022-10-16T16:53:43;1.77;;;1.00;;
13485;SDS011;6815;59.336;17.998;2022-10-16T16:56:10;1.90;;;1.03;;
13485;SDS011;6815;59.336;17.998;2022-10-16T16:58:36;2.47;;;0.80;;